createdAt,value
2023-03-30T00:00:18.637Z,95641.56
2023-03-30T00:02:23.097Z,95591.81
2023-03-30T00:04:28.144Z,95644.88
2023-03-30T00:06:31.130Z,95639.50
2023-03-30T00:08:34.342Z,95598.06
2023-03-30T00:10:38.586Z,95635.44
2023-03-30T00:12:43.568Z,95633.06
2023-03-30T00:14:46.260Z,95642.75
2023-03-30T00:16:49.009Z,95638.47
2023-03-30T00:18:51.967Z,95637.66
2023-03-30T00:20:56.741Z,95638.22
2023-03-30T00:22:59.803Z,95639.84
2023-03-30T00:25:02.578Z,95635.88
2023-03-30T00:27:05.627Z,95629.38
2023-03-30T00:29:08.381Z,95622.09
2023-03-30T00:31:11.675Z,95554.75
2023-03-30T00:33:17.116Z,95509.25
2023-03-30T00:35:20.250Z,95624.75
2023-03-30T00:37:25.789Z,95618.00
2023-03-30T00:39:28.784Z,95581.63
2023-03-30T00:41:31.555Z,95613.13
2023-03-30T00:43:34.408Z,95563.00
2023-03-30T00:45:38.227Z,95571.13
2023-03-30T00:47:44.333Z,95610.16
2023-03-30T00:49:47.081Z,95601.84
2023-03-30T00:51:50.731Z,95604.81
2023-03-30T00:53:58.644Z,95600.47
2023-03-30T00:56:04.264Z,95589.69
2023-03-30T00:58:09.865Z,95455.66
2023-03-30T01:00:14.707Z,95614.25
2023-03-30T01:02:18.774Z,95601.88
2023-03-30T01:04:22.150Z,95617.25
2023-03-30T01:06:30.030Z,95624.25
2023-03-30T01:08:33.560Z,95632.38
2023-03-30T01:10:37.636Z,95657.22
2023-03-30T01:12:41.042Z,95653.19
2023-03-30T01:14:43.825Z,95661.25
2023-03-30T01:16:55.775Z,95630.28
2023-03-30T01:19:16.361Z,95670.69
2023-03-30T01:21:43.439Z,95666.66
2023-03-30T01:24:15.905Z,95657.50
2023-03-30T01:26:51.108Z,95640.25
2023-03-30T01:29:00.392Z,95627.31
2023-03-30T01:31:33.220Z,95620.28
2023-03-30T01:33:55.679Z,95620.81
2023-03-30T01:36:31.784Z,95625.66
2023-03-30T01:39:05.782Z,95631.59
2023-03-30T01:41:14.931Z,95638.88
2023-03-30T01:43:21.636Z,95567.50
2023-03-30T01:45:32.618Z,95641.84
2023-03-30T01:47:40.020Z,95639.69
2023-03-30T01:49:48.555Z,95604.94
2023-03-30T01:52:01.764Z,95613.56
2023-03-30T01:54:08.785Z,95640.78
2023-03-30T01:56:18.272Z,95624.88
2023-03-30T01:58:28.060Z,95589.84
2023-03-30T02:00:31.589Z,95622.97
2023-03-30T02:02:35.866Z,95631.34
2023-03-30T02:04:42.301Z,95641.06
2023-03-30T02:06:48.622Z,95591.47
2023-03-30T02:08:54.462Z,95629.72
2023-03-30T02:10:59.409Z,95634.03
2023-03-30T02:13:05.994Z,95597.13
2023-03-30T02:15:11.147Z,95628.38
2023-03-30T02:17:17.210Z,95631.63
2023-03-30T02:19:20.823Z,95630.81
2023-03-30T02:21:23.622Z,95650.47
2023-03-30T02:23:31.918Z,95646.19
2023-03-30T02:25:36.395Z,95646.19
2023-03-30T02:27:39.773Z,95641.88
2023-03-30T02:29:46.487Z,95567.50
2023-03-30T02:31:53.777Z,95640.50
2023-03-30T02:34:09.845Z,95628.13
2023-03-30T02:36:24.023Z,95628.94
2023-03-30T02:38:49.340Z,95584.75
2023-03-30T02:41:05.257Z,95617.63
2023-03-30T02:43:23.520Z,95615.72
2023-03-30T02:45:41.993Z,95590.13
2023-03-30T02:47:54.406Z,95573.69
2023-03-30T02:50:01.525Z,95579.06
2023-03-30T02:52:15.842Z,95583.94
2023-03-30T02:54:31.639Z,95560.50
2023-03-30T02:57:07.845Z,95562.13
2023-03-30T02:59:14.569Z,95558.34
2023-03-30T03:01:24.262Z,95548.66
2023-03-30T03:03:37.651Z,95454.09
2023-03-30T03:05:43.190Z,95503.63
2023-03-30T03:07:48.145Z,95541.06
2023-03-30T03:09:51.106Z,95544.03
2023-03-30T03:11:54.081Z,95520.59
2023-03-30T03:13:57.063Z,95516.28
2023-03-30T03:16:02.884Z,95531.38
2023-03-30T03:18:08.590Z,95521.94
2023-03-30T03:20:13.715Z,95526.53
2023-03-30T03:22:16.752Z,95519.25
2023-03-30T03:24:19.509Z,95512.53
2023-03-30T03:26:41.186Z,95516.28
2023-03-30T03:28:44.800Z,95510.91
2023-03-30T03:30:49.426Z,95515.72
2023-03-30T03:32:54.719Z,95514.13
2023-03-30T03:35:01.730Z,95478.03
2023-03-30T03:37:04.470Z,95510.09
2023-03-30T03:39:09.409Z,95512.53
2023-03-30T03:41:12.836Z,95492.59
2023-03-30T03:43:16.917Z,95509.03
2023-03-30T03:45:26.577Z,95503.91
2023-03-30T03:47:33.202Z,95495.84
2023-03-30T03:49:36.626Z,95502.84
2023-03-30T03:51:40.775Z,95488.56
2023-03-30T03:53:43.668Z,95466.25
2023-03-30T03:55:49.260Z,95479.16
2023-03-30T03:57:52.033Z,95467.84
2023-03-30T03:59:56.972Z,95462.47
2023-03-30T04:02:00.865Z,95461.41
2023-03-30T04:04:04.045Z,95457.63
2023-03-30T04:06:07.152Z,95460.31
2023-03-30T04:08:11.858Z,95447.41
2023-03-30T04:10:16.516Z,95440.66
2023-03-30T04:12:20.226Z,95440.94
2023-03-30T04:14:49.878Z,95432.34
2023-03-30T04:17:15.850Z,95421.03
2023-03-30T04:19:36.036Z,95425.06
2023-03-30T04:21:55.589Z,95426.41
2023-03-30T04:24:18.697Z,95418.06
2023-03-30T04:26:48.857Z,95433.94
2023-03-30T04:29:16.772Z,95436.91
2023-03-30T04:31:38.569Z,95441.22
2023-03-30T04:34:02.710Z,95444.97
2023-03-30T04:36:25.123Z,95434.47
2023-03-30T04:38:58.629Z,95429.38
2023-03-30T04:41:26.062Z,95417.78
2023-03-30T04:43:45.657Z,95413.50
2023-03-30T04:46:07.429Z,95411.34
2023-03-30T04:48:10.361Z,95409.19
2023-03-30T04:50:31.921Z,95409.19
2023-03-30T04:52:58.139Z,95332.28
2023-03-30T04:55:21.174Z,95395.47
2023-03-30T04:57:48.416Z,95384.44
2023-03-30T05:00:15.110Z,95393.84
2023-03-30T05:02:53.122Z,95373.13
2023-03-30T05:05:22.173Z,95395.72
2023-03-30T05:07:54.413Z,95392.50
2023-03-30T05:10:23.668Z,95402.19
2023-03-30T05:12:39.768Z,95400.84
2023-03-30T05:15:04.779Z,95404.34
2023-03-30T05:17:40.858Z,95354.19
2023-03-30T05:20:08.454Z,95389.66
2023-03-30T05:22:40.571Z,95380.31
2023-03-30T05:24:53.126Z,95380.94
2023-03-30T05:27:19.111Z,95376.91
2023-03-30T05:29:27.348Z,95345.44
2023-03-30T05:31:49.995Z,95385.25
2023-03-30T05:33:58.660Z,95371.25
2023-03-30T05:36:15.074Z,95385.78
2023-03-30T05:38:32.190Z,95384.94
2023-03-30T05:40:46.148Z,95342.19
2023-03-30T05:42:57.906Z,95397.88
2023-03-30T05:45:18.109Z,95419.16
2023-03-30T05:47:42.758Z,95421.03
2023-03-30T05:50:00.517Z,95432.34
2023-03-30T05:52:12.218Z,95449.56
2023-03-30T05:54:47.261Z,95449.00
2023-03-30T05:57:05.902Z,95451.16
2023-03-30T05:59:14.099Z,95456.56
2023-03-30T06:01:48.866Z,95464.09
2023-03-30T06:03:53.208Z,95463.81
2023-03-30T06:05:56.391Z,95460.34
2023-03-30T06:08:00.572Z,95467.88
2023-03-30T06:10:04.199Z,95458.97
2023-03-30T06:12:07.679Z,95464.09
2023-03-30T06:14:12.477Z,95458.72
2023-03-30T06:16:20.178Z,95444.72
2023-03-30T06:18:23.508Z,95441.47
2023-03-30T06:20:33.891Z,95457.09
2023-03-30T06:22:38.003Z,95465.97
2023-03-30T06:24:54.479Z,95478.63
2023-03-30T06:26:57.439Z,95477.84
2023-03-30T06:29:01.099Z,95489.97
2023-03-30T06:31:09.152Z,95473.81
2023-03-30T06:33:12.602Z,95475.94
2023-03-30T06:35:29.170Z,95468.41
2023-03-30T06:37:36.225Z,95450.63
2023-03-30T06:39:39.287Z,95451.41
2023-03-30T06:41:42.556Z,95452.72
2023-03-30T06:44:00.871Z,95468.88
2023-03-30T06:46:11.306Z,95481.81
2023-03-30T06:48:20.498Z,95488.28
2023-03-30T06:50:27.704Z,95450.91
2023-03-30T06:52:44.084Z,95534.09
2023-03-30T06:54:46.815Z,95542.72
2023-03-30T06:56:52.783Z,95540.53
2023-03-30T06:58:57.109Z,95507.44
2023-03-30T07:00:59.960Z,95553.44
2023-03-30T07:03:21.371Z,95556.38
2023-03-30T07:05:35.332Z,95544.00
2023-03-30T07:07:58.322Z,95556.63
2023-03-30T07:10:02.552Z,95531.31
2023-03-30T07:12:06.016Z,95554.50
2023-03-30T07:14:12.579Z,95565.78
2023-03-30T07:16:15.658Z,95576.34
2023-03-30T07:18:18.722Z,95580.38
2023-03-30T07:20:21.533Z,95579.84
2023-03-30T07:22:57.791Z,95577.13
2023-03-30T07:25:01.278Z,95572.84
2023-03-30T07:27:04.897Z,95562.91
2023-03-30T07:29:09.354Z,95549.97
2023-03-30T07:31:17.168Z,95549.19
2023-03-30T07:33:20.171Z,95551.31
2023-03-30T07:35:23.929Z,95536.25
2023-03-30T07:37:26.853Z,95509.84
2023-03-30T07:39:33.440Z,95522.25
2023-03-30T07:41:37.980Z,95519.28
2023-03-30T07:43:41.577Z,95537.34
2023-03-30T07:45:44.438Z,95535.19
2023-03-30T07:47:53.208Z,95540.53
2023-03-30T07:49:56.164Z,95534.88
2023-03-30T07:52:00.257Z,95536.78
2023-03-30T07:54:11.893Z,95538.94
2023-03-30T07:56:39.162Z,95559.13
2023-03-30T07:58:43.385Z,95565.34
2023-03-30T08:00:47.734Z,95576.66
2023-03-30T08:03:12.018Z,95580.94
2023-03-30T08:05:15.552Z,95576.13
2023-03-30T08:07:28.759Z,95583.66
2023-03-30T08:09:38.959Z,95591.19
2023-03-30T08:11:43.164Z,95591.72
2023-03-30T08:13:45.991Z,95598.72
2023-03-30T08:15:48.941Z,95613.00
2023-03-30T08:17:51.830Z,95621.66
2023-03-30T08:19:56.189Z,95633.78
2023-03-30T08:22:01.711Z,95643.47
2023-03-30T08:24:04.833Z,95643.19
2023-03-30T08:26:07.877Z,95646.16
2023-03-30T08:28:12.034Z,95644.78
2023-03-30T08:30:16.412Z,95625.16
2023-03-30T08:32:19.175Z,95641.88
2023-03-30T08:34:21.900Z,95641.59
2023-03-30T08:36:24.647Z,95645.09
2023-03-30T08:38:27.432Z,95642.41
2023-03-30T08:40:30.198Z,95647.78
2023-03-30T08:42:49.691Z,95632.41
2023-03-30T08:44:55.863Z,95638.09
2023-03-30T08:47:00.098Z,95646.69
2023-03-30T08:49:12.840Z,95657.47
2023-03-30T08:51:24.762Z,95670.94
2023-03-30T08:53:29.713Z,95639.16
2023-03-30T08:55:39.837Z,95654.41
2023-03-30T08:57:52.568Z,95611.53
2023-03-30T09:00:12.740Z,95624.03
2023-03-30T09:02:20.493Z,95561.78
2023-03-30T09:04:34.504Z,95559.28
2023-03-30T09:06:48.089Z,95581.16
2023-03-30T09:08:52.072Z,95566.41
2023-03-30T09:10:59.378Z,95546.50
2023-03-30T09:13:05.544Z,95541.13
2023-03-30T09:15:16.673Z,95479.72
2023-03-30T09:17:22.131Z,95502.34
2023-03-30T09:19:30.272Z,95558.59
2023-03-30T09:21:33.360Z,95555.63
2023-03-30T09:23:36.256Z,95561.81
2023-03-30T09:25:44.965Z,95574.50
2023-03-30T09:27:58.707Z,95580.41
2023-03-30T09:30:08.429Z,95493.47
2023-03-30T09:32:15.904Z,95596.56
2023-03-30T09:34:27.320Z,95599.78
2023-03-30T09:36:39.042Z,95595.69
2023-03-30T09:38:42.696Z,95592.16
2023-03-30T09:40:57.140Z,95591.09
2023-03-30T09:43:11.150Z,95524.81
2023-03-30T09:45:19.592Z,95571.63
2023-03-30T09:47:26.266Z,95598.09
2023-03-30T09:49:29.897Z,95610.66
2023-03-30T09:51:32.678Z,95608.75
2023-03-30T09:53:37.263Z,95599.56
2023-03-30T09:55:39.990Z,95600.72
2023-03-30T09:57:42.744Z,95608.41
2023-03-30T09:59:46.020Z,95601.63
2023-03-30T10:01:48.836Z,95600.84
2023-03-30T10:04:10.915Z,95607.06
2023-03-30T10:06:18.129Z,95609.75
2023-03-30T10:08:25.043Z,95607.06
2023-03-30T10:10:33.557Z,95545.22
2023-03-30T10:12:36.333Z,95581.31
2023-03-30T10:14:39.288Z,95614.97
2023-03-30T10:16:45.297Z,95617.69
2023-03-30T10:18:48.144Z,95603.41
2023-03-30T10:20:54.574Z,95596.72
2023-03-30T10:23:01.539Z,95585.16
2023-03-30T10:25:10.276Z,95611.03
2023-03-30T10:27:15.711Z,95611.06
2023-03-30T10:29:21.177Z,95599.72
2023-03-30T10:31:27.653Z,95599.97
2023-03-30T10:33:32.020Z,95607.78
2023-03-30T10:35:38.564Z,95597.28
2023-03-30T10:37:46.879Z,95611.28
2023-03-30T10:39:50.792Z,95602.13
2023-03-30T10:41:57.317Z,95610.50
2023-03-30T10:44:11.714Z,95612.41
2023-03-30T10:46:20.362Z,95632.63
2023-03-30T10:48:33.749Z,95623.72
2023-03-30T10:50:44.768Z,95621.28
2023-03-30T10:52:59.427Z,95630.75
2023-03-30T10:55:15.652Z,95627.78
2023-03-30T10:57:20.591Z,95631.03
2023-03-30T10:59:59.960Z,95625.94
2023-03-30T11:02:31.345Z,95621.31
2023-03-30T11:04:39.138Z,95574.19
2023-03-30T11:06:42.877Z,95628.59
2023-03-30T11:08:50.184Z,95620.47
2023-03-30T11:10:55.645Z,95479.97
2023-03-30T11:13:03.080Z,95611.56
2023-03-30T11:15:10.833Z,95615.88
2023-03-30T11:17:21.071Z,95599.97
2023-03-30T11:19:26.985Z,95604.00
2023-03-30T11:21:35.041Z,95602.13
2023-03-30T11:23:46.530Z,95596.47
2023-03-30T11:26:01.457Z,95605.88
2023-03-30T11:28:12.902Z,95623.38
2023-03-30T11:30:21.613Z,95620.41
2023-03-30T11:32:31.542Z,95618.31
2023-03-30T11:34:44.660Z,95602.94
2023-03-30T11:36:56.009Z,95587.56
2023-03-30T11:39:04.804Z,95567.34
2023-03-30T11:41:14.611Z,95570.56
2023-03-30T11:43:19.495Z,95571.09
2023-03-30T11:45:37.766Z,95593.50
2023-03-30T11:48:00.052Z,95606.69
2023-03-30T11:50:18.833Z,95545.84
2023-03-30T11:52:31.487Z,95598.06
2023-03-30T11:55:03.950Z,95611.22
2023-03-30T11:57:17.247Z,95580.25
2023-03-30T11:59:32.691Z,95518.06
2023-03-30T12:02:03.133Z,95618.00
2023-03-30T12:04:10.855Z,95612.59
2023-03-30T12:06:33.076Z,95616.13
2023-03-30T12:08:56.323Z,95623.41
2023-03-30T12:11:06.630Z,95612.53
2023-03-30T12:13:14.767Z,95496.31
2023-03-30T12:15:35.678Z,95598.00
2023-03-30T12:17:48.099Z,95625.41
2023-03-30T12:19:57.198Z,95619.16
2023-03-30T12:22:05.569Z,95610.19
2023-03-30T12:24:16.834Z,95632.44
2023-03-30T12:26:26.845Z,95597.53
2023-03-30T12:28:54.993Z,95550.34
2023-03-30T12:31:04.771Z,95589.91
2023-03-30T12:33:13.271Z,95563.38
2023-03-30T12:35:52.775Z,95605.97
2023-03-30T12:37:55.583Z,95579.03
2023-03-30T12:40:06.683Z,95596.06
2023-03-30T12:42:26.141Z,95583.72
2023-03-30T12:44:39.013Z,95584.09
2023-03-30T12:46:50.526Z,95590.31
2023-03-30T12:49:05.619Z,95561.16
2023-03-30T12:51:20.747Z,95565.31
2023-03-30T12:53:43.964Z,95558.97
2023-03-30T12:55:53.539Z,95571.84
2023-03-30T12:58:11.714Z,95524.59
2023-03-30T13:00:48.126Z,95563.69
2023-03-30T13:03:03.808Z,95562.97
2023-03-30T13:05:18.827Z,95546.47
2023-03-30T13:07:23.635Z,95539.81
2023-03-30T13:09:34.214Z,95544.97
2023-03-30T13:11:45.640Z,95549.50
2023-03-30T13:13:52.688Z,95509.00
2023-03-30T13:15:57.926Z,95537.88
2023-03-30T13:18:02.319Z,95524.69
2023-03-30T13:20:29.394Z,95492.66
2023-03-30T13:22:33.903Z,95528.78
2023-03-30T13:24:41.095Z,95520.03
2023-03-30T13:26:46.000Z,95518.81
2023-03-30T13:29:00.455Z,95501.66
2023-03-30T13:31:16.260Z,95517.59
2023-03-30T13:33:21.926Z,95416.94
2023-03-30T13:35:34.820Z,95447.56
2023-03-30T13:37:56.096Z,95507.09
2023-03-30T13:40:07.311Z,95468.91
2023-03-30T13:42:29.542Z,95378.22
2023-03-30T13:44:50.332Z,95479.19
2023-03-30T13:47:00.394Z,95507.47
2023-03-30T13:49:16.064Z,95466.63
2023-03-30T13:51:23.990Z,95488.78
2023-03-30T13:53:31.472Z,95488.69
2023-03-30T13:55:39.232Z,95529.47
2023-03-30T13:57:44.201Z,95518.00
2023-03-30T13:59:52.513Z,95514.16
2023-03-30T14:01:59.550Z,95502.28
2023-03-30T14:04:05.981Z,95507.22
2023-03-30T14:06:17.649Z,95497.66
2023-03-30T14:08:20.415Z,95473.16
2023-03-30T14:10:23.303Z,95479.47
2023-03-30T14:12:26.312Z,95469.47
2023-03-30T14:14:35.905Z,95511.19
2023-03-30T14:16:41.237Z,95506.50
2023-03-30T14:18:45.728Z,95494.13
2023-03-30T14:20:51.238Z,95484.97
2023-03-30T14:22:56.744Z,95505.69
2023-03-30T14:25:01.154Z,95486.91
2023-03-30T14:27:06.118Z,95503.34
2023-03-30T14:29:28.291Z,95501.63
2023-03-30T14:31:39.978Z,95493.19
2023-03-30T14:33:42.889Z,95516.75
2023-03-30T14:35:49.449Z,95500.03
2023-03-30T14:37:53.001Z,95509.50
2023-03-30T14:39:57.641Z,95458.31
2023-03-30T14:42:08.885Z,95514.50
2023-03-30T14:44:14.660Z,95499.63
2023-03-30T14:46:17.870Z,95515.13
2023-03-30T14:48:26.391Z,95512.78
2023-03-30T14:50:29.378Z,95449.09
2023-03-30T14:52:39.359Z,95545.66
2023-03-30T14:54:51.369Z,95541.75
2023-03-30T14:57:03.417Z,95537.59
2023-03-30T14:59:07.781Z,95560.56
2023-03-30T15:01:16.861Z,95542.22
2023-03-30T15:03:30.637Z,95552.03
2023-03-30T15:05:40.559Z,95478.13
2023-03-30T15:07:48.280Z,95551.75
2023-03-30T15:09:56.441Z,95549.47
2023-03-30T15:12:02.014Z,95545.38
2023-03-30T15:14:09.657Z,95555.66
2023-03-30T15:16:17.118Z,95567.19
2023-03-30T15:18:25.539Z,95549.53
2023-03-30T15:20:30.725Z,95544.16
2023-03-30T15:22:36.146Z,95480.69
2023-03-30T15:24:41.832Z,95550.84
2023-03-30T15:26:48.309Z,95557.31
2023-03-30T15:28:54.614Z,95529.66
2023-03-30T15:30:57.450Z,95557.41
2023-03-30T15:33:00.537Z,95567.75
2023-03-30T15:35:09.322Z,95562.91
2023-03-30T15:37:23.115Z,95437.28
2023-03-30T15:39:33.726Z,95571.34
2023-03-30T15:42:04.162Z,95560.91
2023-03-30T15:44:12.759Z,95513.75
2023-03-30T15:46:17.085Z,95255.44
2023-03-30T15:48:23.388Z,95549.81
2023-03-30T15:50:27.503Z,95558.63
2023-03-30T15:52:35.589Z,95553.81
2023-03-30T15:54:42.005Z,95438.69
2023-03-30T15:56:49.929Z,95537.22
2023-03-30T15:58:54.826Z,95544.72
2023-03-30T16:00:58.029Z,95536.06
2023-03-30T16:03:03.223Z,95538.44
2023-03-30T16:05:08.195Z,95545.16
2023-03-30T16:07:16.175Z,95549.97
2023-03-30T16:09:19.035Z,95461.97
2023-03-30T16:11:22.774Z,95538.91
2023-03-30T16:13:25.687Z,95561.94
2023-03-30T16:15:32.451Z,95539.63
2023-03-30T16:17:36.058Z,95538.06
2023-03-30T16:19:38.942Z,95535.41
2023-03-30T16:21:43.269Z,95534.91
2023-03-30T16:23:48.025Z,95475.78
2023-03-30T16:25:50.828Z,95536.94
2023-03-30T16:27:54.591Z,95527.34
2023-03-30T16:29:57.442Z,95490.53
2023-03-30T16:32:01.889Z,95529.63
2023-03-30T16:34:04.674Z,95528.88
2023-03-30T16:36:08.193Z,95528.22
2023-03-30T16:38:13.131Z,95532.22
2023-03-30T16:40:26.998Z,95546.19
2023-03-30T16:42:29.895Z,95552.75
2023-03-30T16:44:32.717Z,95550.28
2023-03-30T16:46:35.503Z,95545.41
2023-03-30T16:48:39.626Z,95521.59
2023-03-30T16:50:43.914Z,95513.09
2023-03-30T16:52:46.690Z,95485.97
2023-03-30T16:54:49.490Z,95545.31
2023-03-30T16:56:52.232Z,95530.72
2023-03-30T16:58:54.975Z,95542.94
2023-03-30T17:01:03.992Z,95562.28
2023-03-30T17:03:07.278Z,95564.13
2023-03-30T17:05:11.743Z,95567.47
2023-03-30T17:07:14.532Z,95565.47
2023-03-30T17:09:19.952Z,95550.59
2023-03-30T17:11:22.699Z,95414.72
2023-03-30T17:13:25.981Z,95532.13
2023-03-30T17:15:29.931Z,95569.03
2023-03-30T17:17:32.707Z,95554.00
2023-03-30T17:19:35.560Z,95557.97
2023-03-30T17:21:40.160Z,95391.41
2023-03-30T17:23:44.285Z,95566.47
2023-03-30T17:25:49.191Z,95565.00
2023-03-30T17:27:52.511Z,95556.56
2023-03-30T17:29:55.934Z,95566.50
2023-03-30T17:31:58.715Z,95553.03
2023-03-30T17:34:01.500Z,95548.16
2023-03-30T17:36:11.309Z,95500.84
2023-03-30T17:38:16.124Z,95553.56
2023-03-30T17:40:21.388Z,95499.31
2023-03-30T17:42:24.212Z,95558.94
2023-03-30T17:44:28.136Z,95550.16
2023-03-30T17:46:31.268Z,95476.00
2023-03-30T17:48:34.210Z,95518.31
2023-03-30T17:50:39.364Z,95481.78
2023-03-30T17:52:42.140Z,95460.03
2023-03-30T17:54:46.375Z,95555.88
2023-03-30T17:56:49.244Z,95555.34
2023-03-30T17:58:53.186Z,95550.63
2023-03-30T18:00:56.257Z,95558.47
2023-03-30T18:02:59.969Z,95433.38
2023-03-30T18:05:03.283Z,95555.56
2023-03-30T18:07:06.078Z,95566.59
2023-03-30T18:09:16.022Z,95567.97
2023-03-30T18:11:20.206Z,95546.47
2023-03-30T18:13:24.480Z,95567.97
2023-03-30T18:15:28.807Z,95579.88
2023-03-30T18:17:31.650Z,95580.94
2023-03-30T18:19:34.429Z,95579.84
2023-03-30T18:21:37.210Z,95582.56
2023-03-30T18:23:39.935Z,95577.47
2023-03-30T18:25:43.190Z,95578.28
2023-03-30T18:27:48.056Z,95586.09
2023-03-30T18:29:50.833Z,95590.66
2023-03-30T18:31:53.602Z,95597.94
2023-03-30T18:33:56.395Z,95605.22
2023-03-30T18:36:04.919Z,95577.19
2023-03-30T18:38:08.034Z,95604.13
2023-03-30T18:40:20.850Z,95604.94
2023-03-30T18:42:23.677Z,95600.63
2023-03-30T18:44:27.824Z,95593.88
2023-03-30T18:46:30.653Z,95597.13
2023-03-30T18:48:33.378Z,95611.13
2023-03-30T18:50:38.317Z,95613.00
2023-03-30T18:52:41.303Z,95540.72
2023-03-30T18:54:44.053Z,95611.59
2023-03-30T18:56:47.844Z,95610.50
2023-03-30T18:58:50.672Z,95604.31
2023-03-30T19:00:55.829Z,95607.50
2023-03-30T19:02:59.670Z,95535.00
2023-03-30T19:05:02.497Z,95609.38
2023-03-30T19:07:05.635Z,95611.69
2023-03-30T19:09:10.059Z,95490.88
2023-03-30T19:11:17.606Z,95598.50
2023-03-30T19:13:21.934Z,95576.78
2023-03-30T19:15:30.304Z,95608.16
2023-03-30T19:17:34.735Z,95614.53
2023-03-30T19:19:37.447Z,95617.19
2023-03-30T19:21:40.750Z,95611.03
2023-03-30T19:23:43.538Z,95604.78
2023-03-30T19:25:48.740Z,95602.66
2023-03-30T19:28:02.589Z,95603.78
2023-03-30T19:30:07.791Z,95611.88
2023-03-30T19:32:11.742Z,95594.41
2023-03-30T19:34:15.973Z,95504.09
2023-03-30T19:36:18.749Z,95597.34
2023-03-30T19:38:21.809Z,95553.09
2023-03-30T19:40:25.059Z,95586.44
2023-03-30T19:42:29.524Z,95600.97
2023-03-30T19:44:32.265Z,95527.94
2023-03-30T19:46:35.100Z,95589.50
2023-03-30T19:48:38.004Z,95584.38
2023-03-30T19:50:42.144Z,95586.22
2023-03-30T19:52:47.069Z,95604.25
2023-03-30T19:54:49.881Z,95591.31
2023-03-30T19:56:52.749Z,95597.47
2023-03-30T19:58:55.527Z,95590.78
2023-03-30T20:00:58.313Z,95599.66
2023-03-30T20:03:01.562Z,95588.34
2023-03-30T20:05:05.128Z,95573.78
2023-03-30T20:07:09.453Z,95599.41
2023-03-30T20:09:12.271Z,95600.19
2023-03-30T20:11:16.085Z,95600.50
2023-03-30T20:13:21.885Z,95598.34
2023-03-30T20:15:26.550Z,95596.72
2023-03-30T20:17:30.021Z,95588.66
2023-03-30T20:19:32.798Z,95572.00
2023-03-30T20:21:35.511Z,95575.72
2023-03-30T20:23:39.623Z,95581.38
2023-03-30T20:25:46.462Z,95582.16
2023-03-30T20:27:49.444Z,95442.44
2023-03-30T20:29:52.244Z,95572.47
2023-03-30T20:31:55.052Z,95580.25
2023-03-30T20:33:58.511Z,95460.72
2023-03-30T20:36:01.529Z,95579.94
2023-03-30T20:38:04.904Z,95585.59
2023-03-30T20:40:12.023Z,95579.09
2023-03-30T20:42:17.909Z,95583.16
2023-03-30T20:44:30.398Z,95582.59
2023-03-30T20:46:35.059Z,95579.34
2023-03-30T20:48:39.187Z,95517.50
2023-03-30T20:50:42.977Z,95522.59
2023-03-30T20:52:45.889Z,95583.28
2023-03-30T20:54:49.357Z,95588.41
2023-03-30T20:56:53.613Z,95585.66
2023-03-30T20:58:56.894Z,95583.50
2023-03-30T21:01:01.639Z,95531.16
2023-03-30T21:03:04.610Z,95477.13
2023-03-30T21:05:08.830Z,95578.69
2023-03-30T21:07:12.202Z,95577.00
2023-03-30T21:09:15.120Z,95557.56
2023-03-30T21:11:18.048Z,95562.13
2023-03-30T21:13:22.674Z,95580.94
2023-03-30T21:15:25.481Z,95482.81
2023-03-30T21:17:28.274Z,95561.88
2023-03-30T21:19:31.195Z,95557.06
2023-03-30T21:21:35.222Z,95536.03
2023-03-30T21:23:39.980Z,95549.78
2023-03-30T21:25:43.285Z,95544.91
2023-03-30T21:27:46.169Z,95551.09
2023-03-30T21:29:50.288Z,95495.09
2023-03-30T21:31:53.177Z,95535.28
2023-03-30T21:33:56.035Z,95531.53
2023-03-30T21:35:59.852Z,95436.38
2023-03-30T21:38:04.048Z,95517.66
2023-03-30T21:40:08.654Z,95512.56
2023-03-30T21:42:11.426Z,95525.47
2023-03-30T21:44:14.167Z,95515.00
2023-03-30T21:46:20.647Z,95500.78
2023-03-30T21:48:24.280Z,95497.03
2023-03-30T21:50:27.031Z,95504.31
2023-03-30T21:52:30.092Z,95459.28
2023-03-30T21:54:32.832Z,95379.09
2023-03-30T21:56:36.090Z,95483.34
2023-03-30T21:58:39.545Z,95482.53
2023-03-30T22:00:44.998Z,95482.53
2023-03-30T22:02:49.223Z,95429.19
2023-03-30T22:04:52.055Z,95457.25
2023-03-30T22:06:54.769Z,95473.97
2023-03-30T22:08:57.751Z,95456.19
2023-03-30T22:11:02.240Z,95465.84
2023-03-30T22:13:05.635Z,95486.91
2023-03-30T22:15:09.655Z,95453.78
2023-03-30T22:17:12.441Z,95483.16
2023-03-30T22:19:18.465Z,95477.97
2023-03-30T22:21:23.978Z,95473.97
2023-03-30T22:23:27.218Z,95450.25
2023-03-30T22:25:29.974Z,95473.47
2023-03-30T22:27:32.721Z,95467.84
2023-03-30T22:29:35.438Z,95475.66
2023-03-30T22:31:38.206Z,95467.63
2023-03-30T22:33:41.544Z,95463.84
2023-03-30T22:35:48.228Z,95286.13
2023-03-30T22:37:51.061Z,95458.22
2023-03-30T22:39:53.765Z,95451.50
2023-03-30T22:41:57.037Z,95436.47
2023-03-30T22:44:00.059Z,95453.66
2023-03-30T22:46:03.070Z,95348.63
2023-03-30T22:48:07.048Z,95320.13
2023-03-30T22:50:10.566Z,95409.31
2023-03-30T22:52:14.576Z,95425.69
2023-03-30T22:54:18.367Z,95432.16
2023-03-30T22:56:21.716Z,95401.53
2023-03-30T22:58:24.970Z,95405.84
2023-03-30T23:00:27.966Z,95405.28
2023-03-30T23:02:31.178Z,95412.81
2023-03-30T23:04:34.251Z,95408.00
2023-03-30T23:06:37.226Z,95399.09
2023-03-30T23:08:42.490Z,95395.88
2023-03-30T23:10:45.858Z,95402.56
2023-03-30T23:12:48.663Z,95407.16
2023-03-30T23:14:51.492Z,95393.47
2023-03-30T23:16:57.714Z,95399.38
2023-03-30T23:19:01.279Z,95380.81
2023-03-30T23:21:06.509Z,95381.63
2023-03-30T23:23:09.828Z,95390.75
2023-03-30T23:25:15.625Z,95266.91
2023-03-30T23:27:18.385Z,95382.84
2023-03-30T23:29:21.334Z,95311.81
2023-03-30T23:31:26.614Z,95280.38
2023-03-30T23:33:29.398Z,95345.25
2023-03-30T23:35:32.176Z,95360.88
2023-03-30T23:37:36.845Z,95357.91
2023-03-30T23:39:39.860Z,95356.28
2023-03-30T23:41:44.257Z,95299.22
2023-03-30T23:43:47.641Z,95252.63
2023-03-30T23:45:51.004Z,95332.09
2023-03-30T23:47:54.026Z,95343.00
2023-03-30T23:49:56.739Z,95332.00
2023-03-30T23:51:59.532Z,95324.75
2023-03-30T23:54:06.245Z,95220.97
2023-03-30T23:56:12.933Z,95257.19
2023-03-30T23:58:17.902Z,95329.56
